Time;durP1;ratioP1;P1;durP2;ratioP2;P2;SDS_P1;SDS_P2;PMS_P1;PMS_P2;Temp;Humidity;BMP_temperature;BMP_pressure;BME280_temperature;BME280_humidity;BME280_pressure;Samples;Min_cycle;Max_cycle;Signal;HPM_P1;HPM_P2
2023/05/16 00:00:07;;;;;;;20.05;13.27;;;;;;;15.65;72.20;94926.31;5049882;28;20047;-78
2023/05/16 00:02:34;;;;;;;24.85;14.35;;;;;;;15.66;72.15;94930.56;5049126;28;20439;-77
2023/05/16 00:05:00;;;;;;;19.10;13.50;;;;;;;15.70;72.53;94951.03;5049689;28;20033;-78
2023/05/16 00:07:25;;;;;;;25.80;14.27;;;;;;;15.64;72.48;94932.78;5047477;28;20063;-78
2023/05/16 00:09:51;;;;;;;20.08;14.23;;;;;;;15.67;72.34;94930.25;5048142;28;20116;-77
2023/05/16 00:12:16;;;;;;;24.13;13.80;;;;;;;15.70;72.57;94942.22;5048239;28;20396;-77
2023/05/16 00:14:42;;;;;;;23.48;14.40;;;;;;;15.74;72.37;94943.16;5049662;28;20033;-77
2023/05/16 00:17:10;;;;;;;20.30;13.40;;;;;;;15.70;72.70;94926.97;5049184;28;20394;-78
2023/05/16 00:19:40;;;;;;;23.60;14.93;;;;;;;15.65;72.96;94924.44;5048369;28;20456;-78
2023/05/16 00:22:06;;;;;;;22.73;14.73;;;;;;;15.65;72.93;94920.97;5047942;28;20033;-78
2023/05/16 00:24:33;;;;;;;21.00;15.32;;;;;;;15.68;72.73;94926.50;5048019;28;20063;-78
2023/05/16 00:26:58;;;;;;;25.65;14.88;;;;;;;15.58;72.82;94912.63;5048227;28;20098;-77
2023/05/16 00:29:24;;;;;;;20.15;15.00;;;;;;;15.56;72.89;94906.81;5049408;28;20503;-78
2023/05/16 00:31:49;;;;;;;19.92;14.77;;;;;;;15.39;73.10;94892.28;5047346;28;20033;-77
2023/05/16 00:34:15;;;;;;;21.17;15.68;;;;;;;15.62;73.14;94922.41;5049273;28;20029;-78
2023/05/16 00:36:40;;;;;;;22.60;15.52;;;;;;;15.59;73.10;94933.69;5047684;28;20076;-77
2023/05/16 00:39:06;;;;;;;20.77;14.60;;;;;;;15.48;73.55;94910.22;5049343;28;20033;-77
2023/05/16 00:41:33;;;;;;;26.98;15.95;;;;;;;15.61;73.32;94926.16;5049551;28;20036;-78
2023/05/16 00:43:58;;;;;;;22.50;14.75;;;;;;;15.57;73.36;94909.16;5047852;28;20029;-78
2023/05/16 00:46:24;;;;;;;22.42;14.35;;;;;;;15.64;73.38;94909.47;5047619;28;20074;-77
2023/05/16 00:48:49;;;;;;;21.95;15.45;;;;;;;15.65;73.40;94902.25;5045553;28;20061;-78
2023/05/16 00:51:16;;;;;;;26.95;15.93;;;;;;;15.44;73.16;94868.06;5047307;28;20163;-77
2023/05/16 00:53:41;;;;;;;24.20;14.98;;;;;;;15.30;73.17;94838.03;5038686;28;20500;-77
2023/05/16 00:56:07;;;;;;;21.92;15.30;;;;;;;14.94;73.02;94784.84;5052403;28;20083;-77
2023/05/16 00:58:33;;;;;;;21.63;15.23;;;;;;;15.27;73.29;94825.28;5051603;28;20046;-77
2023/05/16 01:01:00;;;;;;;22.10;15.55;;;;;;;15.00;73.37;94790.81;5053122;28;20035;-77
2023/05/16 01:03:26;;;;;;;24.02;15.52;;;;;;;15.50;73.32;94865.25;5053061;28;20479;-77
2023/05/16 01:05:52;;;;;;;21.23;14.93;;;;;;;15.64;72.89;94884.66;5051384;28;20037;-78
2023/05/16 01:08:18;;;;;;;27.88;16.63;;;;;;;15.61;73.31;94877.25;5052605;28;20029;-78
2023/05/16 01:10:58;;;;;;;24.88;16.10;;;;;;;15.13;73.03;94802.47;5050619;28;20363;-78
2023/05/16 01:13:32;;;;;;;22.23;15.32;;;;;;;15.58;73.45;94892.03;5051916;28;20033;-78
2023/05/16 01:16:08;;;;;;;24.73;15.68;;;;;;;15.62;73.12;94889.53;5053211;28;20054;-78
2023/05/16 01:18:51;;;;;;;21.90;15.07;;;;;;;15.57;73.29;94871.72;5051538;28;20124;-78
2023/05/16 01:21:33;;;;;;;29.48;16.63;;;;;;;15.57;73.18;94869.06;5039129;28;20033;-78
2023/05/16 01:24:53;;;;;;;26.90;15.93;;;;;;;15.62;73.14;94870.81;5051071;28;20139;-78
2023/05/16 01:27:20;;;;;;;22.67;14.52;;;;;;;15.61;73.18;94870.03;5084031;28;20037;-78
2023/05/16 01:29:45;;;;;;;20.25;14.27;;;;;;;15.22;73.21;94813.97;5051406;28;20116;-78
2023/05/16 01:32:13;;;;;;;24.13;15.18;;;;;;;15.60;73.05;94868.44;5051113;28;20112;-78
2023/05/16 01:34:39;;;;;;;20.85;13.43;;;;;;;15.53;72.74;94859.28;5051231;28;20388;-77
2023/05/16 01:37:42;;;;;;;19.98;14.43;;;;;;;15.58;73.02;94864.50;5053179;28;20090;-77
2023/05/16 01:40:15;;;;;;;15.93;13.43;;;;;;;15.50;72.92;94852.66;5032488;28;20490;-76
2023/05/16 01:42:43;;;;;;;22.67;12.88;;;;;;;15.45;73.05;94826.09;5045269;28;20045;-76
2023/05/16 01:45:15;;;;;;;21.50;13.85;;;;;;;15.57;72.92;94842.34;5053002;28;20036;-77
2023/05/16 01:47:45;;;;;;;23.60;13.75;;;;;;;15.44;72.89;94819.19;5053027;28;20043;-76
2023/05/16 01:50:16;;;;;;;20.85;13.13;;;;;;;15.55;72.67;94844.56;5053214;28;20379;-76
2023/05/16 01:53:05;;;;;;;24.77;12.70;;;;;;;15.56;72.64;94846.13;5054665;28;20120;-76
2023/05/16 01:55:39;;;;;;;21.58;13.38;;;;;;;15.52;72.89;94836.31;5054106;28;20044;-76
2023/05/16 01:58:07;;;;;;;21.35;13.25;;;;;;;15.42;72.68;94822.16;5052579;28;20040;-78
2023/05/16 02:00:33;;;;;;;23.20;13.82;;;;;;;15.27;72.91;94793.22;5052106;28;20025;-78
2023/05/16 02:02:58;;;;;;;14.60;11.93;;;;;;;15.33;72.70;94813.34;5051644;28;20109;-78
2023/05/16 02:05:23;;;;;;;22.40;13.02;;;;;;;15.33;72.79;94809.91;5052019;28;20094;-79
2023/05/16 02:07:49;;;;;;;22.50;13.23;;;;;;;15.41;72.61;94825.94;5051069;28;20086;-78
2023/05/16 02:10:15;;;;;;;23.85;14.27;;;;;;;15.42;72.60;94816.03;5050699;28;20450;-78
2023/05/16 02:12:40;;;;;;;22.50;13.60;;;;;;;15.26;72.46;94796.97;5052044;28;20560;-78
2023/05/16 02:15:06;;;;;;;27.67;13.65;;;;;;;15.48;72.72;94832.72;5050877;28;20511;-78
2023/05/16 02:17:31;;;;;;;20.00;14.07;;;;;;;15.25;72.89;94794.66;5052323;28;20045;-78
2023/05/16 02:19:57;;;;;;;24.02;13.63;;;;;;;15.45;72.82;94824.22;5050365;28;20087;-78
2023/05/16 02:22:22;;;;;;;20.23;13.30;;;;;;;15.48;72.90;94817.47;5067368;28;20033;-78
2023/05/16 02:24:48;;;;;;;20.48;13.85;;;;;;;15.33;72.92;94802.66;5067450;28;20053;-78
2023/05/16 02:27:13;;;;;;;27.23;14.35;;;;;;;15.35;72.69;94813.03;5051669;28;20037;-78
2023/05/16 02:29:38;;;;;;;25.65;13.13;;;;;;;15.05;72.88;94769.28;5050263;28;20059;-79
2023/05/16 02:32:04;;;;;;;21.02;13.00;;;;;;;15.26;72.45;94793.53;5050243;28;20040;-78
2023/05/16 02:34:30;;;;;;;21.40;13.38;;;;;;;14.95;72.62;94742.91;5050612;28;20032;-78
2023/05/16 02:36:55;;;;;;;20.05;11.95;;;;;;;15.38;72.77;94821.22;5050563;28;20037;-78
2023/05/16 02:39:21;;;;;;;17.92;12.15;;;;;;;15.32;72.77;94809.13;5051269;28;20033;-78
2023/05/16 02:41:46;;;;;;;20.50;12.70;;;;;;;15.41;73.02;94836.63;5050137;28;20037;-78
2023/05/16 02:44:11;;;;;;;20.92;11.85;;;;;;;15.35;72.90;94829.06;5051412;28;20033;-78
2023/05/16 02:46:37;;;;;;;19.58;11.40;;;;;;;15.14;72.75;94799.47;5050462;28;20510;-78
2023/05/16 02:49:02;;;;;;;22.42;12.05;;;;;;;15.12;72.50;94788.31;5050672;28;20033;-78
2023/05/16 02:51:28;;;;;;;22.67;12.13;;;;;;;15.11;72.34;94781.41;5051807;28;20103;-78
2023/05/16 02:53:55;;;;;;;23.60;12.50;;;;;;;15.36;72.43;94823.41;5051625;28;20029;-78
2023/05/16 02:56:21;;;;;;;22.70;12.57;;;;;;;15.37;72.01;94805.50;5050972;28;20035;-78
2023/05/16 02:58:48;;;;;;;18.55;11.40;;;;;;;15.19;72.36;94787.84;5051499;28;20116;-78
2023/05/16 03:01:14;;;;;;;22.30;11.90;;;;;;;15.22;72.21;94793.38;5049734;28;20039;-78
2023/05/16 03:03:40;;;;;;;14.40;10.40;;;;;;;15.42;72.55;94819.50;5049636;28;20032;-78
2023/05/16 03:06:05;;;;;;;16.92;10.50;;;;;;;15.20;72.37;94787.56;5049866;28;20044;-78
2023/05/16 03:08:31;;;;;;;19.52;11.25;;;;;;;15.38;72.75;94817.75;5050918;28;20507;-78
2023/05/16 03:10:57;;;;;;;22.83;10.90;;;;;;;15.09;72.38;94772.94;5049503;28;20546;-78
2023/05/16 03:13:23;;;;;;;21.80;12.82;;;;;;;15.43;72.42;94815.72;5051215;28;20052;-78
2023/05/16 03:15:48;;;;;;;17.80;11.18;;;;;;;14.96;72.37;94750.56;5049807;28;20384;-79
2023/05/16 03:18:14;;;;;;;18.58;11.35;;;;;;;15.17;72.22;94777.50;5049764;28;20029;-78
2023/05/16 03:20:39;;;;;;;17.17;10.80;;;;;;;15.17;72.67;94780.19;5050762;28;20037;-78
2023/05/16 03:23:07;;;;;;;24.20;11.95;;;;;;;15.34;72.95;94822.13;5049158;28;20463;-78
2023/05/16 03:25:33;;;;;;;21.20;11.73;;;;;;;15.39;72.76;94827.34;5050702;28;20503;-78
2023/05/16 03:27:58;;;;;;;23.40;12.00;;;;;;;15.39;72.64;94814.00;5049717;28;20474;-78
2023/05/16 03:30:25;;;;;;;22.23;12.43;;;;;;;15.41;72.79;94814.44;5049021;28;20064;-79
2023/05/16 03:32:51;;;;;;;17.80;11.10;;;;;;;15.39;72.59;94817.47;5048993;28;20135;-77
2023/05/16 03:35:16;;;;;;;20.75;12.13;;;;;;;15.07;73.17;94778.56;5050187;28;20576;-78
2023/05/16 03:37:42;;;;;;;28.13;13.20;;;;;;;15.10;73.24;94795.09;5050314;28;20021;-78
2023/05/16 03:40:08;;;;;;;22.33;12.07;;;;;;;15.15;73.50;94797.59;5050380;28;20388;-78
2023/05/16 03:42:34;;;;;;;26.33;12.93;;;;;;;15.01;73.54;94771.81;5048843;28;20040;-78
2023/05/16 03:44:59;;;;;;;29.52;13.07;;;;;;;15.16;73.76;94799.97;5041948;28;20044;-78
2023/05/16 03:47:25;;;;;;;27.80;13.57;;;;;;;15.32;73.21;94811.78;5040546;28;20070;-78
2023/05/16 03:49:51;;;;;;;24.60;13.07;;;;;;;15.24;73.42;94806.44;5039358;28;20086;-78
2023/05/16 03:52:17;;;;;;;20.50;11.85;;;;;;;14.83;73.35;94735.47;5036027;28;20036;-78
2023/05/16 03:54:43;;;;;;;17.95;12.02;;;;;;;15.13;73.54;94779.22;5037371;28;20462;-79
2023/05/16 03:57:08;;;;;;;22.15;12.32;;;;;;;15.04;73.35;94765.03;5047376;28;20032;-78
2023/05/16 03:59:34;;;;;;;19.92;12.70;;;;;;;15.14;73.15;94777.31;5048305;28;20094;-78
2023/05/16 04:01:59;;;;;;;22.42;13.15;;;;;;;15.16;73.51;94781.28;5049693;28;20392;-78
2023/05/16 04:04:25;;;;;;;23.42;14.43;;;;;;;15.16;73.11;94772.47;5046154;28;20037;-78
2023/05/16 04:06:50;;;;;;;21.23;13.00;;;;;;;15.32;73.35;94795.75;5049085;28;20041;-78
2023/05/16 04:09:15;;;;;;;23.50;13.38;;;;;;;15.47;73.55;94813.22;5042581;28;20447;-78
2023/05/16 04:11:42;;;;;;;32.45;14.77;;;;;;;15.22;73.56;94776.56;5035669;28;20495;-78
2023/05/16 04:14:07;;;;;;;19.70;13.27;;;;;;;15.48;73.27;94816.69;5047348;28;20499;-78
2023/05/16 04:16:32;;;;;;;25.15;14.07;;;;;;;15.46;73.78;94825.00;5047734;28;20044;-78
2023/05/16 04:18:58;;;;;;;30.25;14.65;;;;;;;15.37;73.36;94806.28;5043808;28;20120;-78
2023/05/16 04:21:23;;;;;;;20.55;13.43;;;;;;;15.13;73.01;94779.22;5044457;28;20032;-78
2023/05/16 04:23:49;;;;;;;22.15;14.43;;;;;;;15.18;73.19;94781.72;5043906;28;20060;-78
2023/05/16 04:26:14;;;;;;;28.25;13.30;;;;;;;15.34;73.05;94798.88;5035724;28;20064;-79
2023/05/16 04:28:40;;;;;;;19.00;13.25;;;;;;;15.44;72.86;94803.16;5040561;28;20032;-79
2023/05/16 04:31:07;;;;;;;28.42;13.38;;;;;;;15.57;73.21;94820.94;5036611;28;20037;-79
2023/05/16 04:33:32;;;;;;;28.40;14.07;;;;;;;15.32;72.70;94771.72;5039076;28;20040;-78
2023/05/16 04:35:58;;;;;;;27.40;13.93;;;;;;;15.49;72.69;94796.84;5033470;28;20376;-78
2023/05/16 04:38:24;;;;;;;23.60;14.52;;;;;;;15.46;72.92;94800.97;5037921;28;20147;-78
2023/05/16 04:40:50;;;;;;;21.33;13.55;;;;;;;15.30;72.44;94768.56;5043413;28;20386;-78
2023/05/16 04:43:16;;;;;;;20.67;14.25;;;;;;;15.40;72.50;94775.50;5041987;28;20072;-78
2023/05/16 04:45:42;;;;;;;20.55;14.27;;;;;;;15.42;72.98;94791.97;5040748;28;20115;-78
2023/05/16 04:48:07;;;;;;;27.20;14.77;;;;;;;15.59;72.74;94817.97;5042707;28;20148;-78
2023/05/16 04:50:33;;;;;;;22.38;14.48;;;;;;;15.66;72.77;94812.94;5040121;28;20037;-78
2023/05/16 04:52:58;;;;;;;35.80;15.00;;;;;;;15.64;72.62;94810.56;5038123;28;20266;-78
2023/05/16 04:55:24;;;;;;;29.10;14.73;;;;;;;15.49;72.46;94780.81;5040352;28;20361;-80
2023/05/16 04:57:49;;;;;;;23.60;14.95;;;;;;;15.44;72.64;94763.06;5041629;28;20036;-78
2023/05/16 05:00:16;;;;;;;24.05;14.07;;;;;;;15.63;72.78;94789.53;5038334;28;20095;-79
2023/05/16 05:02:42;;;;;;;23.70;14.38;;;;;;;15.71;72.50;94796.78;5027612;28;20033;-78
2023/05/16 05:05:08;;;;;;;23.00;14.85;;;;;;;15.34;72.52;94744.66;5032332;28;20037;-79
2023/05/16 05:07:33;;;;;;;36.63;15.32;;;;;;;15.48;72.36;94768.59;5039368;28;20035;-79
2023/05/16 05:09:59;;;;;;;30.05;17.02;;;;;;;15.47;72.44;94775.81;5039053;28;20391;-79
2023/05/16 05:12:26;;;;;;;35.90;15.93;;;;;;;15.54;71.95;94783.38;5038640;28;20029;-80
2023/05/16 05:14:51;;;;;;;23.25;15.55;;;;;;;15.41;71.90;94766.34;5035642;28;20447;-79
2023/05/16 05:17:17;;;;;;;27.38;15.07;;;;;;;15.22;71.92;94726.59;5041513;28;20098;-79
2023/05/16 05:19:42;;;;;;;40.97;15.52;;;;;;;15.64;71.72;94785.75;5035269;28;20066;-78
2023/05/16 05:22:07;;;;;;;24.52;14.40;;;;;;;15.88;71.83;94815.47;5034179;28;20029;-79
2023/05/16 05:24:33;;;;;;;26.77;14.05;;;;;;;15.54;71.65;94757.44;5036486;28;20049;-80
2023/05/16 05:26:58;;;;;;;25.67;14.82;;;;;;;15.91;71.69;94814.84;5035517;28;20087;-78
2023/05/16 05:29:24;;;;;;;24.63;14.55;;;;;;;15.73;71.66;94798.00;5037939;28;20039;-79
2023/05/16 05:31:49;;;;;;;28.58;15.18;;;;;;;15.94;71.76;94816.91;5033132;28;20029;-79
2023/05/16 05:34:15;;;;;;;30.30;16.27;;;;;;;15.68;71.58;94767.97;5033631;28;20519;-78
2023/05/16 05:36:40;;;;;;;35.47;16.65;;;;;;;15.83;72.09;94789.69;5034256;28;20621;-78
2023/05/16 05:39:06;;;;;;;41.08;17.73;;;;;;;15.81;72.07;94786.53;5041477;28;20059;-80
2023/05/16 05:41:33;;;;;;;58.17;21.98;;;;;;;15.61;72.07;94762.31;5034928;28;20098;-82
2023/05/16 05:43:58;;;;;;;35.58;16.33;;;;;;;15.56;71.74;94741.09;5039415;28;20037;-77
2023/05/16 05:46:24;;;;;;;25.73;14.45;;;;;;;15.32;71.92;94701.47;5034375;28;20037;-79
2023/05/16 05:48:50;;;;;;;27.77;14.50;;;;;;;15.86;72.09;94790.16;5040083;28;20489;-78
2023/05/16 05:51:16;;;;;;;25.30;15.18;;;;;;;15.46;71.79;94739.50;5037113;28;20270;-79
2023/05/16 05:53:42;;;;;;;35.25;19.38;;;;;;;15.55;71.89;94734.97;5038829;28;20116;-80
2023/05/16 05:56:08;;;;;;;39.67;16.95;;;;;;;15.57;71.90;94740.78;5039565;28;20029;-81
2023/05/16 05:58:33;;;;;;;34.90;16.85;;;;;;;15.57;72.45;94748.00;5040295;28;20031;-81
2023/05/16 06:00:59;;;;;;;29.63;15.73;;;;;;;15.90;72.49;94791.09;5038340;28;20093;-80
2023/05/16 06:03:24;;;;;;;25.38;14.43;;;;;;;15.75;71.95;94749.56;5036764;28;20029;-80
2023/05/16 06:05:50;;;;;;;35.78;15.75;;;;;;;15.83;71.65;94751.47;5037370;28;20080;-78
2023/05/16 06:08:16;;;;;;;45.67;18.40;;;;;;;15.90;71.49;94751.75;5026592;28;20128;-79
2023/05/16 06:10:41;;;;;;;36.67;16.52;;;;;;;15.86;71.49;94737.47;5035544;28;20044;-78
2023/05/16 06:13:07;;;;;;;39.95;14.93;;;;;;;15.94;71.37;94754.59;5033378;28;20090;-79
2023/05/16 06:15:32;;;;;;;35.55;16.63;;;;;;;15.72;71.92;94726.94;5033610;28;20041;-78
2023/05/16 06:17:58;;;;;;;49.15;18.00;;;;;;;16.08;71.85;94772.03;5032639;28;20036;-78
2023/05/16 06:20:23;;;;;;;65.53;22.65;;;;;;;15.58;71.69;94683.53;5034125;28;20044;-82
2023/05/16 06:22:50;;;;;;;72.68;23.83;;;;;;;15.38;71.92;94660.91;5026954;28;20594;-79
2023/05/16 06:25:16;;;;;;;32.45;16.00;;;;;;;15.84;71.34;94726.28;5038940;28;20033;-86
2023/05/16 06:27:41;;;;;;;22.77;13.68;;;;;;;15.88;71.06;94734.44;5037724;28;20048;-79
2023/05/16 06:30:08;;;;;;;50.83;20.33;;;;;;;15.81;71.56;94733.06;5042177;28;20029;-84
2023/05/16 06:32:33;;;;;;;64.00;19.33;;;;;;;16.15;71.28;94804.44;5041130;28;20041;-85
2023/05/16 06:34:59;;;;;;;26.48;13.40;;;;;;;15.87;71.40;94751.63;5036339;28;20634;-81
2023/05/16 06:37:25;;;;;;;23.23;13.73;;;;;;;16.08;70.92;94763.22;5034474;28;20036;-82
2023/05/16 06:39:50;;;;;;;28.45;13.88;;;;;;;16.11;70.76;94751.88;5034126;28;20040;-82
2023/05/16 06:42:16;;;;;;;25.08;11.85;;;;;;;15.67;70.08;94692.34;5021924;28;20483;-80
2023/05/16 06:44:41;;;;;;;22.63;12.10;;;;;;;16.14;70.40;94737.88;5037797;28;20044;-79
2023/05/16 06:47:07;;;;;;;21.13;13.43;;;;;;;16.15;70.37;94745.59;5035383;28;20143;-80
2023/05/16 06:49:33;;;;;;;24.50;12.55;;;;;;;16.34;70.56;94768.50;5038083;28;20550;-80
2023/05/16 06:51:58;;;;;;;29.02;14.45;;;;;;;16.02;70.46;94708.34;5022482;28;20113;-79
2023/05/16 06:54:24;;;;;;;23.20;13.27;;;;;;;16.24;70.37;94745.56;5041177;28;20482;-80
2023/05/16 06:56:50;;;;;;;37.33;14.70;;;;;;;16.35;70.47;94762.06;5035768;28;20071;-80
2023/05/16 06:59:15;;;;;;;23.10;14.38;;;;;;;16.07;70.50;94716.97;5034795;28;20032;-80
2023/05/16 07:01:41;;;;;;;29.00;13.77;;;;;;;16.08;71.05;94715.88;5039831;28;20036;-80
2023/05/16 07:04:06;;;;;;;20.60;12.90;;;;;;;16.06;70.34;94707.38;5041025;28;20400;-80
2023/05/16 07:06:32;;;;;;;24.17;12.98;;;;;;;16.24;69.91;94753.59;5034192;28;20075;-80
2023/05/16 07:08:57;;;;;;;37.28;16.80;;;;;;;15.91;70.55;94709.75;5016038;28;20041;-79
2023/05/16 07:11:23;;;;;;;35.97;16.35;;;;;;;16.05;70.35;94724.53;5035104;28;20424;-81
2023/05/16 07:13:48;;;;;;;33.42;14.63;;;;;;;16.26;70.28;94755.94;5035156;28;20044;-81
2023/05/16 07:16:14;;;;;;;35.58;15.73;;;;;;;15.95;69.73;94719.50;5024762;28;20416;-82
2023/05/16 07:18:40;;;;;;;15.98;11.80;;;;;;;16.21;69.53;94751.56;5038737;28;20163;-79
2023/05/16 07:21:05;;;;;;;138.98;79.15;;;;;;;16.25;68.99;94747.13;5039945;28;20536;-81
2023/05/16 07:23:31;;;;;;;827.97;409.33;;;;;;;15.84;69.47;94704.91;5033044;28;20086;-80
2023/05/16 07:25:58;;;;;;;66.88;33.67;;;;;;;15.90;69.65;94692.94;5020939;28;20455;-80
2023/05/16 07:28:23;;;;;;;54.70;26.00;;;;;;;16.00;69.64;94689.16;5036026;28;20073;-81
2023/05/16 07:30:49;;;;;;;30.63;17.10;;;;;;;16.29;68.83;94733.91;5038022;28;20523;-80
2023/05/16 07:33:14;;;;;;;35.72;15.65;;;;;;;16.29;69.26;94740.03;5038541;28;20032;-81
2023/05/16 07:35:40;;;;;;;39.60;16.88;;;;;;;16.34;69.12;94715.78;5019758;28;20041;-79
2023/05/16 07:38:05;;;;;;;54.97;20.90;;;;;;;16.53;69.31;94734.13;5033965;28;20121;-80
2023/05/16 07:40:31;;;;;;;34.22;17.65;;;;;;;16.52;69.05;94746.72;5035860;28;20507;-79
2023/05/16 07:42:57;;;;;;;30.08;15.02;;;;;;;16.58;68.59;94747.34;5032555;28;20045;-80
2023/05/16 07:45:22;;;;;;;36.47;16.48;;;;;;;16.34;67.91;94693.56;5039859;28;20134;-79
2023/05/16 07:47:48;;;;;;;70.25;31.33;;;;;;;16.46;67.86;94709.75;5037922;28;20048;-81
2023/05/16 07:50:13;;;;;;;65.20;27.10;;;;;;;16.53;67.77;94737.59;5018106;28;20039;-82
2023/05/16 07:52:39;;;;;;;58.47;25.15;;;;;;;16.67;67.44;94758.03;5033039;28;20069;-79
2023/05/16 07:55:05;;;;;;;89.78;46.00;;;;;;;16.44;67.66;94710.06;5042646;28;20132;-80
2023/05/16 07:57:30;;;;;;;61.22;26.17;;;;;;;16.49;67.19;94690.38;5038279;28;20041;-80
2023/05/16 07:59:56;;;;;;;50.72;20.60;;;;;;;16.41;67.19;94689.28;5039793;28;20037;-80
2023/05/16 08:02:24;;;;;;;42.65;17.17;;;;;;;16.48;66.69;94702.97;5033581;28;20106;-81
2023/05/16 08:04:50;;;;;;;50.78;17.27;;;;;;;16.85;67.24;94751.50;5036812;28;20048;-82
2023/05/16 08:07:15;;;;;;;41.53;17.70;;;;;;;16.83;66.91;94717.00;5033670;28;20033;-79
2023/05/16 08:09:41;;;;;;;43.22;19.65;;;;;;;17.09;66.80;94729.47;5035080;28;20287;-79
2023/05/16 08:12:07;;;;;;;30.20;13.60;;;;;;;16.91;67.33;94716.19;5029072;28;20479;-79
2023/05/16 08:14:32;;;;;;;24.45;12.70;;;;;;;16.95;66.39;94719.78;5035522;28;20037;-80
2023/05/16 08:16:59;;;;;;;28.80;12.80;;;;;;;17.19;66.24;94723.72;5031293;28;20036;-79
2023/05/16 08:19:24;;;;;;;26.88;12.75;;;;;;;17.28;66.13;94709.16;5036075;28;20049;-79
2023/05/16 08:21:50;;;;;;;22.88;12.98;;;;;;;17.27;65.66;94696.88;5031708;28;20137;-79
2023/05/16 08:24:15;;;;;;;37.65;18.73;;;;;;;17.33;65.65;94695.56;5032438;28;20053;-80
2023/05/16 08:26:41;;;;;;;29.63;14.15;;;;;;;17.66;66.00;94724.34;5027289;28;20044;-80
2023/05/16 08:29:07;;;;;;;26.65;12.50;;;;;;;17.78;65.87;94718.22;5035186;28;20048;-80
2023/05/16 08:31:32;;;;;;;33.13;13.63;;;;;;;17.51;65.87;94671.28;5019869;28;20415;-79
2023/05/16 08:33:57;;;;;;;49.65;17.60;;;;;;;17.52;66.29;94670.97;5030952;28;20495;-83
2023/05/16 08:36:23;;;;;;;32.30;14.13;;;;;;;17.77;66.32;94689.88;5029127;28;20799;-81
2023/05/16 08:38:49;;;;;;;29.35;14.77;;;;;;;17.69;65.30;94662.81;5035719;28;20032;-79
2023/05/16 08:41:14;;;;;;;33.60;13.73;;;;;;;17.98;65.65;94712.84;5040013;28;20033;-79
2023/05/16 08:43:40;;;;;;;31.30;13.00;;;;;;;18.19;65.24;94720.06;5038462;28;20048;-78
2023/05/16 08:46:07;;;;;;;28.70;13.27;;;;;;;18.09;64.87;94686.38;5034661;28;20514;-78
2023/05/16 08:48:35;;;;;;;32.15;14.32;;;;;;;18.26;64.79;94704.19;5033610;28;20350;-79
2023/05/16 08:51:02;;;;;;;28.42;13.60;;;;;;;18.34;64.56;94698.72;5033334;28;20525;-78
2023/05/16 08:53:36;;;;;;;27.25;12.82;;;;;;;18.53;64.64;94717.00;5032006;28;20055;-78
2023/05/16 08:56:04;;;;;;;34.38;14.02;;;;;;;18.34;64.52;94682.63;5029290;28;20206;-78
2023/05/16 08:58:30;;;;;;;42.40;14.45;;;;;;;18.43;64.29;94667.19;5032426;28;20059;-78
2023/05/16 09:00:57;;;;;;;24.20;11.07;;;;;;;18.67;63.29;94693.31;5034953;28;20681;-79
2023/05/16 09:03:24;;;;;;;33.25;12.23;;;;;;;18.83;63.14;94686.16;5035525;28;20202;-79
2023/05/16 09:05:49;;;;;;;24.27;11.75;;;;;;;19.18;62.29;94710.63;5032324;28;20191;-78
2023/05/16 09:08:15;;;;;;;21.83;10.65;;;;;;;18.96;61.89;94657.34;5027447;28;20190;-78
2023/05/16 09:10:40;;;;;;;34.00;13.32;;;;;;;19.18;60.87;94704.44;5030824;28;20542;-78
2023/05/16 09:13:06;;;;;;;31.13;12.40;;;;;;;19.37;60.68;94695.81;5036394;28;20047;-78
2023/05/16 09:15:33;;;;;;;30.75;13.27;;;;;;;18.96;61.26;94632.38;5032368;28;20036;-79
2023/05/16 09:18:02;;;;;;;41.60;13.55;;;;;;;18.92;61.03;94640.31;5038073;28;20091;-79
2023/05/16 09:20:27;;;;;;;25.00;10.75;;;;;;;19.43;60.73;94699.81;5034999;28;20414;-79
2023/05/16 09:22:55;;;;;;;24.83;10.00;;;;;;;19.45;60.07;94695.66;5032198;28;20196;-79
2023/05/16 09:25:21;;;;;;;36.42;11.88;;;;;;;19.10;60.47;94638.16;5022484;28;20049;-78
2023/05/16 09:27:47;;;;;;;23.33;10.27;;;;;;;19.42;59.94;94682.09;5027450;28;20033;-78
2023/05/16 09:30:17;;;;;;;30.02;11.13;;;;;;;19.56;60.14;94701.34;5030029;28;20064;-79
2023/05/16 09:32:44;;;;;;;21.27;10.63;;;;;;;19.45;60.14;94681.44;5030224;28;20175;-78
2023/05/16 09:35:20;;;;;;;28.15;11.35;;;;;;;19.75;59.61;94723.06;5009828;28;20045;-78
2023/05/16 09:37:46;;;;;;;25.17;12.43;;;;;;;19.83;59.38;94722.13;5031031;28;20079;-78
2023/05/16 09:40:12;;;;;;;282.50;150.40;;;;;;;19.45;59.63;94657.22;5030669;28;20079;-78
2023/05/16 09:42:38;;;;;;;72.35;45.50;;;;;;;19.39;59.52;94635.16;5029935;28;20055;-78
2023/05/16 09:45:04;;;;;;;259.08;115.93;;;;;;;19.74;59.61;94673.06;5038603;28;20040;-79
2023/05/16 09:47:30;;;;;;;235.25;94.80;;;;;;;19.66;59.68;94671.28;5033177;28;20052;-79
2023/05/16 09:49:56;;;;;;;110.32;45.85;;;;;;;19.79;58.78;94685.47;5034522;28;20477;-79
2023/05/16 09:52:25;;;;;;;27.30;12.15;;;;;;;19.73;58.37;94663.41;5034205;28;20039;-81
2023/05/16 09:54:50;;;;;;;29.67;12.48;;;;;;;19.78;59.04;94700.81;5029048;28;20705;-79
2023/05/16 09:57:25;;;;;;;19.77;11.48;;;;;;;19.83;58.80;94689.06;5029425;28;20048;-79
2023/05/16 09:59:51;;;;;;;21.67;11.02;;;;;;;20.05;57.82;94704.66;5018237;28;20036;-79
2023/05/16 10:02:18;;;;;;;23.38;12.45;;;;;;;19.74;58.47;94656.13;5030440;28;20094;-80
2023/05/16 10:04:43;;;;;;;25.52;13.27;;;;;;;19.89;58.37;94669.63;5052226;28;20024;-79
2023/05/16 10:07:09;;;;;;;23.13;12.68;;;;;;;20.05;57.80;94699.25;5037629;28;20101;-79
2023/05/16 10:09:35;;;;;;;14.00;9.63;;;;;;;20.24;58.08;94698.59;5014781;28;20033;-79
2023/05/16 10:12:05;;;;;;;24.30;9.82;;;;;;;20.43;57.88;94701.41;5031290;28;20025;-79
2023/05/16 10:14:41;;;;;;;28.77;10.77;;;;;;;20.50;58.03;94708.91;5026254;28;20040;-78
2023/05/16 10:17:10;;;;;;;19.30;9.88;;;;;;;20.15;57.58;94647.59;5029706;28;20087;-78
2023/05/16 10:19:39;;;;;;;26.65;10.00;;;;;;;20.59;56.63;94696.81;5015298;28;20024;-78
2023/05/16 10:22:07;;;;;;;22.75;9.35;;;;;;;20.54;56.54;94666.66;5031491;28;20735;-79
2023/05/16 10:24:47;;;;;;;23.73;10.77;;;;;;;20.48;56.10;94651.88;5026197;28;20052;-79
2023/05/16 10:27:14;;;;;;;21.60;11.05;;;;;;;20.27;55.87;94635.97;5031239;28;20396;-80
2023/05/16 10:29:41;;;;;;;20.92;8.65;;;;;;;20.47;55.72;94664.56;5031163;28;20037;-82
2023/05/16 10:32:08;;;;;;;35.67;12.52;;;;;;;20.66;56.49;94685.44;5044460;28;20491;-81
2023/05/16 10:34:34;;;;;;;32.95;12.07;;;;;;;20.42;56.16;94646.78;5022285;28;20102;-79
2023/05/16 10:37:02;;;;;;;27.67;10.98;;;;;;;20.07;56.03;94602.78;5023899;28;20045;-79
2023/05/16 10:39:29;;;;;;;33.17;11.80;;;;;;;20.35;56.28;94656.59;5028295;28;20032;-79
2023/05/16 10:41:55;;;;;;;31.65;10.60;;;;;;;20.21;56.68;94626.59;5023777;28;20056;-79
2023/05/16 10:44:20;;;;;;;45.53;13.07;;;;;;;19.73;57.33;94547.75;5024747;28;20402;-79
2023/05/16 10:46:47;;;;;;;30.25;11.40;;;;;;;20.15;57.01;94590.28;5026026;28;20163;-79
2023/05/16 10:49:24;;;;;;;39.17;11.88;;;;;;;20.38;58.14;94620.88;5028578;28;20036;-79
2023/05/16 10:52:04;;;;;;;30.92;10.77;;;;;;;20.35;57.75;94627.75;5028613;28;20036;-79
2023/05/16 10:54:34;;;;;;;27.73;10.65;;;;;;;20.11;57.28;94598.28;5028927;28;20039;-80
2023/05/16 10:57:24;;;;;;;33.75;11.80;;;;;;;20.29;57.52;94604.84;5021781;28;20392;-80
2023/05/16 10:59:50;;;;;;;24.58;9.23;;;;;;;20.27;57.95;94595.59;5028527;28;20080;-79
2023/05/16 11:02:40;;;;;;;18.25;8.57;;;;;;;20.47;57.28;94639.56;5027681;28;20068;-79
2023/05/16 11:05:12;;;;;;;29.73;10.48;;;;;;;20.27;57.32;94631.38;5030133;28;20631;-79
2023/05/16 11:07:37;;;;;;;42.88;18.65;;;;;;;19.97;57.56;94577.19;5023088;28;20040;-79
2023/05/16 11:10:07;;;;;;;28.83;11.90;;;;;;;20.12;57.86;94605.22;5016125;28;20620;-79
2023/05/16 11:12:46;;;;;;;28.85;10.30;;;;;;;20.14;58.27;94627.19;5040372;28;20040;-80
2023/05/16 11:15:22;;;;;;;28.08;10.98;;;;;;;20.32;58.74;94646.47;5022240;28;20029;-80